createdAt,value
2022-10-17T00:01:06.963Z,5.28
2022-10-17T00:03:52.038Z,5.75
2022-10-17T00:06:37.117Z,5.50
2022-10-17T00:09:22.446Z,5.15
2022-10-17T00:12:07.476Z,5.43
2022-10-17T00:14:52.481Z,5.32
2022-10-17T00:17:38.333Z,5.20
2022-10-17T00:20:23.621Z,4.88
2022-10-17T00:23:08.924Z,4.80
2022-10-17T00:26:01.844Z,5.95
2022-10-17T00:28:51.503Z,5.05
2022-10-17T00:31:36.524Z,5.38
2022-10-17T00:34:22.059Z,5.47
2022-10-17T00:37:07.261Z,5.88
2022-10-17T00:39:52.302Z,5.80
2022-10-17T00:42:37.551Z,5.13
2022-10-17T00:45:31.005Z,4.88
2022-10-17T00:48:21.176Z,5.40
2022-10-17T00:51:08.059Z,5.65
2022-10-17T00:53:53.436Z,5.78
2022-10-17T00:56:40.369Z,5.35
2022-10-17T00:59:26.068Z,5.32
2022-10-17T01:02:15.484Z,4.78
2022-10-17T01:05:01.243Z,4.78
2022-10-17T01:07:48.559Z,4.88
2022-10-17T01:10:55.635Z,4.65
2022-10-17T01:13:59.261Z,4.78
2022-10-17T01:16:56.711Z,4.85
2022-10-17T01:19:55.492Z,4.30
2022-10-17T01:22:54.707Z,4.60
2022-10-17T01:26:00.899Z,5.35
2022-10-17T01:29:11.035Z,5.18
2022-10-17T01:32:05.991Z,4.03
2022-10-17T01:34:51.203Z,4.25
2022-10-17T01:37:50.610Z,4.70
2022-10-17T01:40:58.978Z,5.07
2022-10-17T01:43:54.682Z,4.18
2022-10-17T01:46:43.887Z,4.82
2022-10-17T01:49:31.665Z,4.00
2022-10-17T01:52:24.770Z,4.70
2022-10-17T01:55:15.089Z,4.25
2022-10-17T01:58:19.048Z,3.78
2022-10-17T02:01:07.726Z,3.83
2022-10-17T02:03:53.738Z,3.38
2022-10-17T02:06:39.168Z,3.90
2022-10-17T02:09:26.761Z,3.20
2022-10-17T02:12:27.857Z,3.30
2022-10-17T02:15:36.728Z,3.28
2022-10-17T02:18:37.850Z,3.13
2022-10-17T02:21:43.982Z,3.03
2022-10-17T02:24:54.980Z,3.03
2022-10-17T02:27:52.483Z,3.53
2022-10-17T02:30:54.919Z,3.08
2022-10-17T02:33:49.502Z,2.75
2022-10-17T02:36:45.904Z,2.70
2022-10-17T02:39:32.903Z,2.90
2022-10-17T02:42:19.886Z,2.53
2022-10-17T02:45:06.445Z,3.00
2022-10-17T02:48:02.317Z,2.90
2022-10-17T02:51:12.248Z,3.65
2022-10-17T02:54:03.186Z,2.90
2022-10-17T02:57:22.084Z,2.67
2022-10-17T03:00:11.031Z,2.70
2022-10-17T03:02:55.900Z,2.90
2022-10-17T03:05:41.210Z,3.25
2022-10-17T03:08:26.557Z,2.40
2022-10-17T03:11:11.705Z,2.30
2022-10-17T03:13:56.779Z,3.15
2022-10-17T03:16:42.007Z,2.78
2022-10-17T03:19:27.404Z,2.38
2022-10-17T03:22:12.356Z,2.40
2022-10-17T03:24:57.876Z,2.42
2022-10-17T03:27:43.041Z,2.40
2022-10-17T03:30:28.926Z,2.30
2022-10-17T03:33:13.948Z,2.70
2022-10-17T03:35:58.747Z,2.45
2022-10-17T03:38:45.021Z,2.88
2022-10-17T03:41:30.158Z,2.78
2022-10-17T03:44:15.349Z,2.55
2022-10-17T03:47:00.617Z,2.67
2022-10-17T03:49:45.660Z,2.67
2022-10-17T03:52:30.837Z,2.75
2022-10-17T03:55:16.543Z,2.17
2022-10-17T03:58:01.656Z,3.00
2022-10-17T04:00:46.652Z,2.60
2022-10-17T04:03:32.305Z,2.83
2022-10-17T04:06:17.315Z,2.45
2022-10-17T04:09:03.634Z,2.80
2022-10-17T04:11:48.953Z,2.75
2022-10-17T04:14:34.250Z,2.50
2022-10-17T04:17:19.512Z,2.63
2022-10-17T04:20:05.202Z,2.90
2022-10-17T04:22:50.126Z,2.45
2022-10-17T04:25:36.789Z,2.53
2022-10-17T04:28:28.480Z,2.52
2022-10-17T04:31:14.721Z,2.72
2022-10-17T04:33:59.999Z,2.75
2022-10-17T04:36:45.705Z,3.38
2022-10-17T04:39:30.582Z,2.80
2022-10-17T04:42:15.673Z,3.17
2022-10-17T04:45:00.537Z,2.67
2022-10-17T04:47:45.729Z,2.45
2022-10-17T04:50:31.057Z,2.60
2022-10-17T04:53:16.465Z,3.30
2022-10-17T04:56:02.159Z,2.75
2022-10-17T04:58:47.730Z,2.92
2022-10-17T05:01:33.118Z,2.97
2022-10-17T05:04:21.068Z,2.60
2022-10-17T05:07:09.298Z,2.70
2022-10-17T05:09:54.517Z,2.35
2022-10-17T05:12:39.417Z,3.40
2022-10-17T05:15:24.576Z,3.08
2022-10-17T05:18:09.938Z,2.60
2022-10-17T05:20:55.079Z,2.78
2022-10-17T05:23:40.302Z,3.00
2022-10-17T05:26:26.098Z,3.63
2022-10-17T05:29:11.599Z,2.53
2022-10-17T05:31:56.909Z,2.70
2022-10-17T05:34:42.075Z,2.70
2022-10-17T05:37:29.998Z,2.83
2022-10-17T05:40:15.392Z,2.60
2022-10-17T05:43:00.386Z,3.00
2022-10-17T05:45:45.294Z,3.00
2022-10-17T05:48:30.306Z,2.92
2022-10-17T05:51:15.444Z,2.75
2022-10-17T05:54:00.491Z,2.70
2022-10-17T05:56:45.298Z,2.88
2022-10-17T05:59:30.112Z,3.25
2022-10-17T06:02:15.009Z,3.08
2022-10-17T06:04:59.962Z,2.97
2022-10-17T06:07:45.228Z,3.03
2022-10-17T06:10:30.532Z,2.75
2022-10-17T06:13:17.095Z,3.10
2022-10-17T06:16:02.012Z,3.00
2022-10-17T06:18:46.891Z,3.05
2022-10-17T06:21:36.340Z,2.58
2022-10-17T06:24:21.446Z,2.83
2022-10-17T06:27:10.979Z,2.40
2022-10-17T06:29:57.204Z,2.35
2022-10-17T06:32:42.143Z,2.78
2022-10-17T06:35:27.114Z,3.10
2022-10-17T06:38:12.363Z,2.80
2022-10-17T06:41:04.935Z,2.92
2022-10-17T06:43:50.112Z,3.00
2022-10-17T06:46:35.080Z,2.83
2022-10-17T06:49:20.059Z,2.97
2022-10-17T06:52:05.249Z,3.03
2022-10-17T06:54:51.861Z,2.50
2022-10-17T06:57:36.878Z,2.58
2022-10-17T07:00:23.348Z,3.13
2022-10-17T07:03:08.384Z,2.63
2022-10-17T07:05:55.051Z,2.58
2022-10-17T07:08:47.121Z,2.50
2022-10-17T07:11:33.109Z,2.15
2022-10-17T07:14:18.528Z,2.20
2022-10-17T07:17:03.478Z,1.90
2022-10-17T07:19:48.915Z,2.13
2022-10-17T07:22:34.169Z,2.15
2022-10-17T07:25:19.644Z,1.90
2022-10-17T07:28:04.651Z,2.20
2022-10-17T07:30:52.072Z,1.67
2022-10-17T07:33:42.527Z,1.50
2022-10-17T07:36:27.421Z,1.65
2022-10-17T07:39:12.809Z,2.50
2022-10-17T07:41:58.798Z,1.90
2022-10-17T07:44:47.285Z,1.63
2022-10-17T07:47:35.542Z,1.25
2022-10-17T07:50:20.741Z,1.23
2022-10-17T07:53:05.700Z,1.02
2022-10-17T07:55:51.355Z,0.70
2022-10-17T07:58:37.592Z,1.20
2022-10-17T08:01:22.845Z,0.88
2022-10-17T08:04:08.147Z,0.90
2022-10-17T08:07:05.410Z,0.80
2022-10-17T08:09:56.834Z,1.25
2022-10-17T08:12:42.311Z,1.77
2022-10-17T08:15:30.937Z,1.50
2022-10-17T08:21:06.321Z,2.00
2022-10-17T08:23:51.646Z,1.70
2022-10-17T08:26:40.584Z,1.75
2022-10-17T08:29:28.483Z,1.45
2022-10-17T08:32:13.650Z,1.20
2022-10-17T08:34:58.850Z,1.58
2022-10-17T08:37:43.904Z,1.60
2022-10-17T08:40:35.456Z,1.60
2022-10-17T08:43:42.113Z,1.45
2022-10-17T08:46:34.225Z,1.20
2022-10-17T08:49:34.297Z,2.00
2022-10-17T08:52:29.200Z,1.08
2022-10-17T08:55:41.285Z,1.42
2022-10-17T08:58:35.347Z,1.65
2022-10-17T09:01:35.043Z,1.77
2022-10-17T09:04:43.601Z,2.08
2022-10-17T09:07:45.670Z,1.35
2022-10-17T09:10:30.821Z,1.55
2022-10-17T09:13:42.147Z,1.65
2022-10-17T09:16:42.390Z,1.63
2022-10-17T09:19:38.861Z,1.60
2022-10-17T09:22:28.289Z,1.73
2022-10-17T09:25:17.347Z,1.88
2022-10-17T09:28:12.530Z,2.37
2022-10-17T09:31:07.145Z,2.33
2022-10-17T09:33:55.740Z,2.40
2022-10-17T09:36:42.400Z,2.63
2022-10-17T09:39:32.962Z,2.00
2022-10-17T09:42:23.800Z,1.98
2022-10-17T09:45:19.440Z,2.00
2022-10-17T09:48:38.429Z,2.72
2022-10-17T09:51:26.299Z,2.25
2022-10-17T09:54:27.520Z,2.15
2022-10-17T09:57:14.894Z,2.38
2022-10-17T10:00:03.936Z,2.60
2022-10-17T10:05:34.470Z,2.78
2022-10-17T10:08:19.886Z,2.75
2022-10-17T10:11:13.504Z,3.65
2022-10-17T10:14:12.190Z,2.75
2022-10-17T10:16:57.089Z,3.20
2022-10-17T10:19:50.472Z,5.00
2022-10-17T10:22:35.456Z,3.63
2022-10-17T10:25:20.651Z,3.67
2022-10-17T10:28:12.220Z,3.65
2022-10-17T10:31:00.287Z,3.00
2022-10-17T10:33:49.466Z,3.72
2022-10-17T10:36:58.094Z,5.07
2022-10-17T10:39:47.588Z,3.65
2022-10-17T10:42:36.970Z,3.85
2022-10-17T10:45:47.934Z,3.17
2022-10-17T10:48:37.002Z,2.88
2022-10-17T10:51:49.366Z,3.15
2022-10-17T10:54:43.783Z,2.70
2022-10-17T10:57:33.370Z,3.20
2022-10-17T11:00:26.005Z,2.90
2022-10-17T11:03:21.790Z,3.03
2022-10-17T11:06:18.981Z,2.30
2022-10-17T11:09:28.846Z,3.35
2022-10-17T11:12:39.379Z,3.25
2022-10-17T11:15:42.990Z,3.55
2022-10-17T11:19:08.313Z,3.00
2022-10-17T11:22:13.259Z,2.58
2022-10-17T11:25:04.200Z,2.20
2022-10-17T11:27:49.418Z,2.47
2022-10-17T11:31:07.189Z,2.72
2022-10-17T11:34:06.186Z,3.13
2022-10-17T11:36:56.859Z,2.25
2022-10-17T11:40:17.088Z,3.03
2022-10-17T11:43:10.924Z,2.22
2022-10-17T11:46:01.323Z,2.50
2022-10-17T11:48:59.761Z,2.88
2022-10-17T11:52:01.957Z,2.58
2022-10-17T11:54:54.627Z,3.72
2022-10-17T11:58:22.964Z,2.97
2022-10-17T12:01:29.217Z,3.03
2022-10-17T12:04:49.377Z,2.80
2022-10-17T12:07:58.029Z,2.63
2022-10-17T12:10:57.250Z,3.40
2022-10-17T12:13:51.722Z,2.63
2022-10-17T12:16:38.165Z,2.47
2022-10-17T12:19:25.383Z,2.47
2022-10-17T12:22:25.926Z,2.22
2022-10-17T12:25:21.720Z,2.38
2022-10-17T12:28:06.900Z,2.40
2022-10-17T12:30:58.854Z,2.22
2022-10-17T12:34:17.655Z,2.50
2022-10-17T12:37:02.800Z,2.40
2022-10-17T12:39:47.946Z,2.17
2022-10-17T12:42:44.687Z,2.17
2022-10-17T12:45:56.856Z,2.20
2022-10-17T12:48:41.913Z,1.98
2022-10-17T12:51:35.613Z,2.33
2022-10-17T12:54:21.827Z,2.45
2022-10-17T12:57:19.080Z,2.70
2022-10-17T13:00:36.649Z,2.92
2022-10-17T13:03:26.000Z,2.45
2022-10-17T13:06:22.005Z,2.60
2022-10-17T13:09:38.558Z,2.47
2022-10-17T13:12:27.451Z,2.10
2022-10-17T13:15:18.903Z,2.45
2022-10-17T13:18:04.124Z,2.67
2022-10-17T13:21:16.114Z,2.30
2022-10-17T13:24:01.402Z,2.22
2022-10-17T13:26:46.926Z,2.60
2022-10-17T13:29:32.943Z,2.58
2022-10-17T13:32:18.251Z,2.72
2022-10-17T13:35:07.926Z,2.35
2022-10-17T13:37:54.251Z,2.10
2022-10-17T13:40:49.954Z,2.53
2022-10-17T13:43:35.587Z,2.08
2022-10-17T13:46:37.287Z,2.63
2022-10-17T13:49:32.407Z,2.65
2022-10-17T13:52:24.802Z,2.25
2022-10-17T13:55:17.480Z,2.00
2022-10-17T13:58:17.219Z,2.20
2022-10-17T14:01:03.052Z,2.00
2022-10-17T14:03:52.346Z,2.40
2022-10-17T14:06:49.612Z,1.80
2022-10-17T14:09:36.300Z,3.05
2022-10-17T14:12:22.423Z,2.38
2022-10-17T14:15:13.134Z,2.22
2022-10-17T14:18:06.753Z,2.47
2022-10-17T14:24:23.732Z,2.45
2022-10-17T14:27:30.862Z,2.33
2022-10-17T14:30:56.918Z,2.13
2022-10-17T14:33:50.494Z,2.28
2022-10-17T14:36:42.013Z,1.95
2022-10-17T14:39:29.234Z,1.98
2022-10-17T14:42:22.707Z,2.15
2022-10-17T14:45:13.460Z,1.50
2022-10-17T14:48:10.433Z,1.48
2022-10-17T14:51:09.565Z,1.70
2022-10-17T14:54:24.481Z,1.63
2022-10-17T14:57:28.707Z,2.38
2022-10-17T15:00:16.182Z,2.20
2022-10-17T15:03:01.462Z,1.60
2022-10-17T15:05:47.947Z,1.60
2022-10-17T15:08:33.422Z,1.67
2022-10-17T15:11:18.206Z,1.88
2022-10-17T15:14:03.217Z,2.17
2022-10-17T15:16:48.249Z,1.73
2022-10-17T15:19:33.166Z,0.93
2022-10-17T15:22:18.398Z,1.95
2022-10-17T15:25:03.680Z,2.40
2022-10-17T15:27:48.813Z,2.38
2022-10-17T15:30:36.365Z,1.98
2022-10-17T15:33:21.498Z,2.15
2022-10-17T15:36:20.534Z,2.78
2022-10-17T15:39:05.926Z,3.33
2022-10-17T15:41:51.125Z,2.70
2022-10-17T15:44:36.647Z,2.95
2022-10-17T15:47:34.183Z,2.67
2022-10-17T15:50:20.148Z,2.72
2022-10-17T15:53:05.731Z,2.63
2022-10-17T15:55:51.029Z,2.58
2022-10-17T15:58:40.173Z,2.20
2022-10-17T16:01:29.533Z,2.28
2022-10-17T16:04:15.853Z,2.33
2022-10-17T16:07:00.687Z,2.35
2022-10-17T16:09:46.259Z,2.10
2022-10-17T16:12:36.855Z,2.55
2022-10-17T16:15:23.062Z,2.58
2022-10-17T16:18:10.063Z,2.85
2022-10-17T16:20:55.043Z,3.03
2022-10-17T16:23:40.802Z,2.70
2022-10-17T16:26:27.046Z,2.13
2022-10-17T16:29:12.193Z,2.65
2022-10-17T16:31:57.231Z,2.03
2022-10-17T16:34:42.544Z,2.20
2022-10-17T16:37:27.538Z,2.25
2022-10-17T16:40:13.775Z,2.30
2022-10-17T16:42:58.653Z,2.47
2022-10-17T16:45:43.577Z,2.85
2022-10-17T16:48:29.752Z,2.45
2022-10-17T16:51:18.018Z,2.45
2022-10-17T16:54:04.576Z,3.00
2022-10-17T16:56:50.367Z,2.88
2022-10-17T16:59:35.384Z,3.13
2022-10-17T17:02:21.371Z,2.42
2022-10-17T17:05:07.246Z,2.28
2022-10-17T17:07:52.672Z,2.97
2022-10-17T17:10:38.131Z,2.63
2022-10-17T17:13:23.262Z,3.25
2022-10-17T17:16:18.157Z,3.20
2022-10-17T17:19:10.262Z,2.65
2022-10-17T17:21:55.602Z,2.92
2022-10-17T17:24:41.006Z,3.30
2022-10-17T17:27:28.655Z,3.42
2022-10-17T17:30:14.223Z,4.38
2022-10-17T17:33:00.449Z,4.00
2022-10-17T17:35:45.650Z,2.90
2022-10-17T17:38:33.034Z,2.72
2022-10-17T17:41:19.909Z,3.25
2022-10-17T17:44:05.398Z,2.95
2022-10-17T17:46:50.679Z,3.05
2022-10-17T17:49:35.661Z,2.88
2022-10-17T17:52:20.807Z,3.38
2022-10-17T17:55:06.602Z,3.05
2022-10-17T17:57:51.460Z,4.07
2022-10-17T18:00:36.497Z,3.45
2022-10-17T18:03:21.705Z,4.03
2022-10-17T18:06:08.112Z,3.20
2022-10-17T18:08:57.906Z,3.20
2022-10-17T18:11:43.093Z,4.32
2022-10-17T18:14:28.138Z,3.72
2022-10-17T18:17:13.069Z,4.25
2022-10-17T18:19:57.993Z,3.90
2022-10-17T18:22:43.059Z,3.45
2022-10-17T18:25:28.299Z,3.97
2022-10-17T18:28:13.293Z,4.05
2022-10-17T18:31:11.660Z,3.47
2022-10-17T18:34:00.034Z,3.37
2022-10-17T18:36:44.937Z,3.95
2022-10-17T18:39:30.390Z,3.67
2022-10-17T18:42:15.343Z,4.40
2022-10-17T18:45:00.771Z,3.80
2022-10-17T18:47:47.340Z,4.25
2022-10-17T18:50:32.506Z,3.88
2022-10-17T18:53:17.408Z,5.05
2022-10-17T18:56:03.354Z,4.13
2022-10-17T18:58:48.401Z,3.67
2022-10-17T19:01:34.048Z,3.90
2022-10-17T19:04:18.946Z,4.60
2022-10-17T19:07:04.352Z,4.20
2022-10-17T19:09:49.532Z,4.82
2022-10-17T19:12:34.685Z,4.18
2022-10-17T19:15:22.502Z,7.65
2022-10-17T19:18:10.962Z,9.73
2022-10-17T19:21:01.849Z,5.13
2022-10-17T19:23:55.970Z,4.68
2022-10-17T19:26:42.671Z,4.43
2022-10-17T19:29:31.052Z,4.82
2022-10-17T19:32:18.102Z,4.32
2022-10-17T19:35:06.503Z,6.15
2022-10-17T19:37:51.537Z,4.45
2022-10-17T19:40:40.691Z,6.53
2022-10-17T19:43:26.107Z,9.38
2022-10-17T19:46:16.180Z,6.05
2022-10-17T19:51:47.198Z,4.80
2022-10-17T19:54:32.558Z,4.43
2022-10-17T19:57:17.683Z,4.45
2022-10-17T20:00:02.987Z,4.53
2022-10-17T20:02:48.199Z,4.22
2022-10-17T20:05:33.053Z,4.07
2022-10-17T20:08:18.542Z,4.45
2022-10-17T20:11:24.683Z,4.95
2022-10-17T20:14:09.988Z,5.00
2022-10-17T20:16:55.513Z,5.00
2022-10-17T20:19:40.744Z,5.57
2022-10-17T20:22:25.689Z,7.63
2022-10-17T20:25:10.755Z,13.98
2022-10-17T20:27:55.926Z,13.93
2022-10-17T20:30:46.072Z,11.10
2022-10-17T20:33:32.043Z,8.75
2022-10-17T20:36:20.120Z,9.90
2022-10-17T20:39:07.131Z,11.43
2022-10-17T20:41:52.541Z,11.30
2022-10-17T20:44:37.714Z,9.77
2022-10-17T20:47:44.185Z,8.76
2022-10-17T20:50:37.242Z,8.15
2022-10-17T20:53:36.426Z,8.45
2022-10-17T20:56:25.655Z,8.68
2022-10-17T20:59:13.530Z,8.00
2022-10-17T21:01:58.869Z,8.13
2022-10-17T21:04:46.762Z,9.48
2022-10-17T21:07:32.295Z,10.23
2022-10-17T21:10:35.098Z,10.98
2022-10-17T21:13:21.067Z,11.30
2022-10-17T21:16:11.608Z,9.82
2022-10-17T21:18:57.831Z,6.35
2022-10-17T21:21:45.599Z,6.05
2022-10-17T21:24:31.466Z,7.30
2022-10-17T21:27:18.499Z,9.77
2022-10-17T21:30:04.307Z,10.05
2022-10-17T21:32:53.698Z,8.75
2022-10-17T21:35:38.886Z,8.25
2022-10-17T21:38:23.806Z,9.82
2022-10-17T21:41:10.266Z,9.73
2022-10-17T21:44:00.843Z,9.38
2022-10-17T21:46:46.629Z,9.13
2022-10-17T21:49:31.751Z,8.27
2022-10-17T21:52:16.898Z,7.40
2022-10-17T21:55:01.787Z,7.60
2022-10-17T21:57:46.667Z,5.25
2022-10-17T22:00:32.094Z,4.13
2022-10-17T22:03:17.411Z,4.75
2022-10-17T22:06:12.694Z,4.95
2022-10-17T22:09:20.449Z,5.43
2022-10-17T22:12:05.414Z,5.10
2022-10-17T22:14:50.639Z,5.60
2022-10-17T22:17:35.413Z,5.90
2022-10-17T22:20:20.514Z,4.90
2022-10-17T22:23:05.442Z,5.30
2022-10-17T22:25:54.752Z,4.55
2022-10-17T22:28:41.223Z,4.80
2022-10-17T22:31:26.346Z,5.13
2022-10-17T22:34:14.142Z,5.60
2022-10-17T22:36:59.330Z,5.75
2022-10-17T22:39:44.418Z,6.10
2022-10-17T22:42:31.518Z,6.57
2022-10-17T22:45:16.822Z,6.57
2022-10-17T22:48:01.653Z,5.80
2022-10-17T22:50:48.807Z,6.28
2022-10-17T22:53:35.080Z,6.80
2022-10-17T22:56:20.798Z,6.45
2022-10-17T22:59:05.926Z,6.28
2022-10-17T23:01:51.036Z,6.20
2022-10-17T23:04:35.789Z,5.70
2022-10-17T23:07:21.165Z,5.97
2022-10-17T23:10:06.762Z,5.90
2022-10-17T23:12:51.792Z,4.30
2022-10-17T23:15:37.016Z,4.38
2022-10-17T23:18:23.142Z,4.15
2022-10-17T23:21:08.454Z,4.38
2022-10-17T23:23:53.244Z,4.00
2022-10-17T23:26:38.254Z,4.32
2022-10-17T23:29:24.268Z,3.83
2022-10-17T23:32:09.345Z,3.03
2022-10-17T23:34:54.231Z,2.83
2022-10-17T23:37:39.185Z,3.08
2022-10-17T23:40:24.112Z,3.08
2022-10-17T23:43:09.417Z,4.05
2022-10-17T23:45:54.418Z,3.88
2022-10-17T23:48:42.664Z,4.20
2022-10-17T23:51:27.859Z,4.15
2022-10-17T23:54:12.867Z,5.10
2022-10-17T23:56:57.938Z,2.83
2022-10-17T23:59:43.251Z,2.67
